sensor_id;sensor_type;location;lat;lon;timestamp;P1;durP1;ratioP1;P2;durP2;ratioP2
4569;SDS011;2297;51.442;6.996;2023-04-06T00:00:31;13.38;;;8.00;;
4569;SDS011;2297;51.442;6.996;2023-04-06T00:02:58;12.77;;;7.13;;
4569;SDS011;2297;51.442;6.996;2023-04-06T00:05:25;14.38;;;7.70;;
4569;SDS011;2297;51.442;6.996;2023-04-06T00:07:52;13.68;;;7.25;;
4569;SDS011;2297;51.442;6.996;2023-04-06T00:10:22;12.38;;;6.97;;
4569;SDS011;2297;51.442;6.996;2023-04-06T00:12:49;14.35;;;7.35;;
4569;SDS011;2297;51.442;6.996;2023-04-06T00:15:15;13.68;;;7.25;;
4569;SDS011;2297;51.442;6.996;2023-04-06T00:17:42;14.35;;;7.60;;
4569;SDS011;2297;51.442;6.996;2023-04-06T00:20:09;13.45;;;7.88;;
4569;SDS011;2297;51.442;6.996;2023-04-06T00:22:37;13.35;;;7.97;;
4569;SDS011;2297;51.442;6.996;2023-04-06T00:25:03;16.30;;;8.52;;
4569;SDS011;2297;51.442;6.996;2023-04-06T00:27:32;11.57;;;7.05;;
4569;SDS011;2297;51.442;6.996;2023-04-06T00:29:59;13.65;;;7.90;;
4569;SDS011;2297;51.442;6.996;2023-04-06T00:32:26;10.82;;;6.78;;
4569;SDS011;2297;51.442;6.996;2023-04-06T00:34:52;13.52;;;8.00;;
4569;SDS011;2297;51.442;6.996;2023-04-06T00:37:19;12.05;;;7.68;;
4569;SDS011;2297;51.442;6.996;2023-04-06T00:39:46;12.82;;;7.38;;
4569;SDS011;2297;51.442;6.996;2023-04-06T00:42:13;14.13;;;7.80;;
4569;SDS011;2297;51.442;6.996;2023-04-06T00:44:41;13.93;;;7.32;;
4569;SDS011;2297;51.442;6.996;2023-04-06T00:47:08;14.30;;;8.82;;
4569;SDS011;2297;51.442;6.996;2023-04-06T00:49:35;16.92;;;8.32;;
4569;SDS011;2297;51.442;6.996;2023-04-06T00:52:02;12.13;;;7.35;;
4569;SDS011;2297;51.442;6.996;2023-04-06T00:54:29;14.52;;;7.57;;
4569;SDS011;2297;51.442;6.996;2023-04-06T00:56:56;14.30;;;7.60;;
4569;SDS011;2297;51.442;6.996;2023-04-06T00:59:23;14.50;;;8.15;;
4569;SDS011;2297;51.442;6.996;2023-04-06T01:01:51;14.68;;;7.75;;
4569;SDS011;2297;51.442;6.996;2023-04-06T01:04:18;14.13;;;7.53;;
4569;SDS011;2297;51.442;6.996;2023-04-06T01:06:47;14.18;;;7.90;;
4569;SDS011;2297;51.442;6.996;2023-04-06T01:09:14;11.75;;;7.60;;
4569;SDS011;2297;51.442;6.996;2023-04-06T01:11:41;13.57;;;8.25;;
4569;SDS011;2297;51.442;6.996;2023-04-06T01:14:08;12.60;;;7.72;;
4569;SDS011;2297;51.442;6.996;2023-04-06T01:16:35;13.07;;;7.40;;
4569;SDS011;2297;51.442;6.996;2023-04-06T01:19:07;12.48;;;7.22;;
4569;SDS011;2297;51.442;6.996;2023-04-06T01:21:35;14.15;;;8.07;;
4569;SDS011;2297;51.442;6.996;2023-04-06T01:24:03;16.42;;;8.30;;
4569;SDS011;2297;51.442;6.996;2023-04-06T01:26:31;15.15;;;8.57;;
4569;SDS011;2297;51.442;6.996;2023-04-06T01:28:58;14.95;;;8.02;;
4569;SDS011;2297;51.442;6.996;2023-04-06T01:31:25;13.95;;;8.32;;
4569;SDS011;2297;51.442;6.996;2023-04-06T01:33:52;17.65;;;8.98;;
4569;SDS011;2297;51.442;6.996;2023-04-06T01:36:19;13.57;;;7.65;;
4569;SDS011;2297;51.442;6.996;2023-04-06T01:38:46;17.45;;;8.68;;
4569;SDS011;2297;51.442;6.996;2023-04-06T01:41:14;14.23;;;8.50;;
4569;SDS011;2297;51.442;6.996;2023-04-06T01:43:41;13.05;;;8.63;;
4569;SDS011;2297;51.442;6.996;2023-04-06T01:46:08;15.43;;;8.63;;
4569;SDS011;2297;51.442;6.996;2023-04-06T01:48:35;18.17;;;9.48;;
4569;SDS011;2297;51.442;6.996;2023-04-06T01:51:01;16.90;;;9.00;;
4569;SDS011;2297;51.442;6.996;2023-04-06T01:53:28;15.00;;;9.07;;
4569;SDS011;2297;51.442;6.996;2023-04-06T01:55:55;14.38;;;8.40;;
4569;SDS011;2297;51.442;6.996;2023-04-06T01:58:23;15.57;;;9.18;;
4569;SDS011;2297;51.442;6.996;2023-04-06T02:00:50;17.48;;;10.05;;
4569;SDS011;2297;51.442;6.996;2023-04-06T02:03:17;17.58;;;9.93;;
4569;SDS011;2297;51.442;6.996;2023-04-06T02:05:43;18.73;;;9.23;;
4569;SDS011;2297;51.442;6.996;2023-04-06T02:08:10;16.38;;;9.43;;
4569;SDS011;2297;51.442;6.996;2023-04-06T02:10:37;17.98;;;9.80;;
4569;SDS011;2297;51.442;6.996;2023-04-06T02:13:04;24.85;;;9.40;;
4569;SDS011;2297;51.442;6.996;2023-04-06T02:15:32;19.75;;;9.90;;
4569;SDS011;2297;51.442;6.996;2023-04-06T02:17:58;18.50;;;10.80;;
4569;SDS011;2297;51.442;6.996;2023-04-06T02:20:26;20.33;;;9.88;;
4569;SDS011;2297;51.442;6.996;2023-04-06T02:22:52;18.13;;;9.43;;
4569;SDS011;2297;51.442;6.996;2023-04-06T02:25:19;19.67;;;9.43;;
4569;SDS011;2297;51.442;6.996;2023-04-06T02:27:46;17.23;;;9.88;;
4569;SDS011;2297;51.442;6.996;2023-04-06T02:30:13;19.00;;;10.38;;
4569;SDS011;2297;51.442;6.996;2023-04-06T02:32:41;15.85;;;10.10;;
4569;SDS011;2297;51.442;6.996;2023-04-06T02:35:08;16.80;;;9.88;;
4569;SDS011;2297;51.442;6.996;2023-04-06T02:37:34;21.05;;;10.18;;
4569;SDS011;2297;51.442;6.996;2023-04-06T02:40:01;20.27;;;9.57;;
4569;SDS011;2297;51.442;6.996;2023-04-06T02:42:28;14.88;;;8.48;;
4569;SDS011;2297;51.442;6.996;2023-04-06T02:44:55;21.55;;;9.45;;
4569;SDS011;2297;51.442;6.996;2023-04-06T02:47:21;15.32;;;8.60;;
4569;SDS011;2297;51.442;6.996;2023-04-06T02:49:49;14.27;;;8.88;;
4569;SDS011;2297;51.442;6.996;2023-04-06T02:52:16;15.23;;;8.38;;
4569;SDS011;2297;51.442;6.996;2023-04-06T02:54:43;14.30;;;8.60;;
4569;SDS011;2297;51.442;6.996;2023-04-06T02:57:10;14.77;;;9.02;;
4569;SDS011;2297;51.442;6.996;2023-04-06T02:59:37;21.35;;;9.30;;
4569;SDS011;2297;51.442;6.996;2023-04-06T03:02:04;13.27;;;8.43;;
4569;SDS011;2297;51.442;6.996;2023-04-06T03:04:30;14.00;;;8.38;;
4569;SDS011;2297;51.442;6.996;2023-04-06T03:06:58;17.27;;;9.13;;
4569;SDS011;2297;51.442;6.996;2023-04-06T03:09:25;16.85;;;8.80;;
4569;SDS011;2297;51.442;6.996;2023-04-06T03:11:52;17.38;;;8.55;;
4569;SDS011;2297;51.442;6.996;2023-04-06T03:14:19;17.52;;;8.55;;
4569;SDS011;2297;51.442;6.996;2023-04-06T03:16:46;15.88;;;8.05;;
4569;SDS011;2297;51.442;6.996;2023-04-06T03:19:13;16.63;;;8.48;;
4569;SDS011;2297;51.442;6.996;2023-04-06T03:21:40;13.98;;;8.40;;
4569;SDS011;2297;51.442;6.996;2023-04-06T03:24:08;15.48;;;8.52;;
4569;SDS011;2297;51.442;6.996;2023-04-06T03:26:35;15.50;;;8.52;;
4569;SDS011;2297;51.442;6.996;2023-04-06T03:29:02;20.17;;;9.38;;
4569;SDS011;2297;51.442;6.996;2023-04-06T03:31:29;18.08;;;9.48;;
4569;SDS011;2297;51.442;6.996;2023-04-06T03:33:55;15.73;;;8.57;;
4569;SDS011;2297;51.442;6.996;2023-04-06T03:36:22;16.42;;;8.05;;
4569;SDS011;2297;51.442;6.996;2023-04-06T03:38:50;14.77;;;8.52;;
4569;SDS011;2297;51.442;6.996;2023-04-06T03:41:19;16.88;;;8.45;;
4569;SDS011;2297;51.442;6.996;2023-04-06T03:43:46;14.35;;;8.18;;
4569;SDS011;2297;51.442;6.996;2023-04-06T03:46:13;16.20;;;9.13;;
4569;SDS011;2297;51.442;6.996;2023-04-06T03:48:40;19.00;;;9.30;;
4569;SDS011;2297;51.442;6.996;2023-04-06T03:51:07;16.42;;;8.43;;
4569;SDS011;2297;51.442;6.996;2023-04-06T03:53:33;15.68;;;9.32;;
4569;SDS011;2297;51.442;6.996;2023-04-06T03:56:01;18.05;;;8.05;;
4569;SDS011;2297;51.442;6.996;2023-04-06T03:58:30;22.08;;;9.73;;
4569;SDS011;2297;51.442;6.996;2023-04-06T04:00:57;17.75;;;8.95;;
4569;SDS011;2297;51.442;6.996;2023-04-06T04:03:23;22.13;;;9.18;;
4569;SDS011;2297;51.442;6.996;2023-04-06T04:05:52;16.00;;;8.60;;
4569;SDS011;2297;51.442;6.996;2023-04-06T04:08:20;16.35;;;8.50;;
4569;SDS011;2297;51.442;6.996;2023-04-06T04:10:46;14.43;;;8.52;;
4569;SDS011;2297;51.442;6.996;2023-04-06T04:13:13;15.82;;;8.35;;
4569;SDS011;2297;51.442;6.996;2023-04-06T04:15:41;15.65;;;8.88;;
4569;SDS011;2297;51.442;6.996;2023-04-06T04:18:08;14.82;;;8.60;;
4569;SDS011;2297;51.442;6.996;2023-04-06T04:20:35;14.50;;;7.90;;
4569;SDS011;2297;51.442;6.996;2023-04-06T04:23:02;15.80;;;8.00;;
4569;SDS011;2297;51.442;6.996;2023-04-06T04:25:28;13.55;;;8.55;;
4569;SDS011;2297;51.442;6.996;2023-04-06T04:27:55;14.13;;;8.25;;
4569;SDS011;2297;51.442;6.996;2023-04-06T04:30:22;13.73;;;8.05;;
4569;SDS011;2297;51.442;6.996;2023-04-06T04:32:50;14.23;;;8.50;;
4569;SDS011;2297;51.442;6.996;2023-04-06T04:35:17;15.13;;;8.35;;
4569;SDS011;2297;51.442;6.996;2023-04-06T04:37:43;16.45;;;8.32;;
4569;SDS011;2297;51.442;6.996;2023-04-06T04:40:10;16.35;;;8.30;;
4569;SDS011;2297;51.442;6.996;2023-04-06T04:42:37;13.45;;;8.50;;
4569;SDS011;2297;51.442;6.996;2023-04-06T04:45:04;15.55;;;7.93;;
4569;SDS011;2297;51.442;6.996;2023-04-06T04:47:31;16.75;;;8.93;;
4569;SDS011;2297;51.442;6.996;2023-04-06T04:49:59;15.75;;;8.27;;
4569;SDS011;2297;51.442;6.996;2023-04-06T04:52:26;13.75;;;7.80;;
4569;SDS011;2297;51.442;6.996;2023-04-06T04:54:53;13.25;;;7.65;;
4569;SDS011;2297;51.442;6.996;2023-04-06T04:57:19;16.92;;;9.00;;
4569;SDS011;2297;51.442;6.996;2023-04-06T04:59:46;15.85;;;8.68;;
4569;SDS011;2297;51.442;6.996;2023-04-06T05:02:14;12.90;;;7.85;;
4569;SDS011;2297;51.442;6.996;2023-04-06T05:04:40;16.50;;;7.63;;
4569;SDS011;2297;51.442;6.996;2023-04-06T05:07:09;17.77;;;8.07;;
4569;SDS011;2297;51.442;6.996;2023-04-06T05:09:36;14.38;;;7.47;;
4569;SDS011;2297;51.442;6.996;2023-04-06T05:12:02;14.15;;;7.60;;
4569;SDS011;2297;51.442;6.996;2023-04-06T05:14:29;16.05;;;7.50;;
4569;SDS011;2297;51.442;6.996;2023-04-06T05:16:56;15.10;;;8.27;;
4569;SDS011;2297;51.442;6.996;2023-04-06T05:19:23;14.90;;;7.82;;
4569;SDS011;2297;51.442;6.996;2023-04-06T05:21:49;15.10;;;7.65;;
4569;SDS011;2297;51.442;6.996;2023-04-06T05:24:17;18.45;;;9.23;;
4569;SDS011;2297;51.442;6.996;2023-04-06T05:26:44;12.95;;;7.90;;
4569;SDS011;2297;51.442;6.996;2023-04-06T05:29:11;14.57;;;7.78;;
4569;SDS011;2297;51.442;6.996;2023-04-06T05:31:38;14.02;;;8.15;;
4569;SDS011;2297;51.442;6.996;2023-04-06T05:34:05;15.38;;;7.15;;
4569;SDS011;2297;51.442;6.996;2023-04-06T05:36:31;13.95;;;8.05;;
4569;SDS011;2297;51.442;6.996;2023-04-06T05:38:58;12.82;;;7.45;;
4569;SDS011;2297;51.442;6.996;2023-04-06T05:41:26;13.10;;;7.32;;
4569;SDS011;2297;51.442;6.996;2023-04-06T05:43:53;13.32;;;7.25;;
4569;SDS011;2297;51.442;6.996;2023-04-06T05:46:20;14.88;;;8.88;;
4569;SDS011;2297;51.442;6.996;2023-04-06T05:48:47;12.38;;;7.53;;
4569;SDS011;2297;51.442;6.996;2023-04-06T05:51:14;16.30;;;7.80;;
4569;SDS011;2297;51.442;6.996;2023-04-06T05:53:41;12.25;;;7.32;;
4569;SDS011;2297;51.442;6.996;2023-04-06T05:56:07;11.82;;;7.15;;
4569;SDS011;2297;51.442;6.996;2023-04-06T05:58:35;14.88;;;7.75;;
4569;SDS011;2297;51.442;6.996;2023-04-06T06:01:02;16.63;;;7.78;;
4569;SDS011;2297;51.442;6.996;2023-04-06T06:03:30;13.50;;;7.65;;
4569;SDS011;2297;51.442;6.996;2023-04-06T06:06:00;13.60;;;7.70;;
4569;SDS011;2297;51.442;6.996;2023-04-06T06:08:27;12.88;;;6.90;;
4569;SDS011;2297;51.442;6.996;2023-04-06T06:10:54;13.82;;;6.95;;
4569;SDS011;2297;51.442;6.996;2023-04-06T06:13:20;15.15;;;7.15;;
4569;SDS011;2297;51.442;6.996;2023-04-06T06:15:49;13.90;;;7.47;;
4569;SDS011;2297;51.442;6.996;2023-04-06T06:18:15;12.20;;;6.90;;
4569;SDS011;2297;51.442;6.996;2023-04-06T06:20:43;11.88;;;6.80;;
4569;SDS011;2297;51.442;6.996;2023-04-06T06:23:09;15.05;;;8.38;;
4569;SDS011;2297;51.442;6.996;2023-04-06T06:25:36;12.38;;;7.57;;
4569;SDS011;2297;51.442;6.996;2023-04-06T06:28:03;10.88;;;6.85;;
4569;SDS011;2297;51.442;6.996;2023-04-06T06:30:30;13.80;;;7.22;;
4569;SDS011;2297;51.442;6.996;2023-04-06T06:32:58;12.38;;;7.82;;
4569;SDS011;2297;51.442;6.996;2023-04-06T06:35:24;12.10;;;6.78;;
4569;SDS011;2297;51.442;6.996;2023-04-06T06:37:51;13.25;;;7.15;;
4569;SDS011;2297;51.442;6.996;2023-04-06T06:40:18;14.75;;;7.40;;
4569;SDS011;2297;51.442;6.996;2023-04-06T06:42:48;14.10;;;6.70;;
4569;SDS011;2297;51.442;6.996;2023-04-06T06:45:15;12.45;;;6.65;;
4569;SDS011;2297;51.442;6.996;2023-04-06T06:47:42;12.55;;;7.25;;
4569;SDS011;2297;51.442;6.996;2023-04-06T06:50:10;13.68;;;6.88;;
4569;SDS011;2297;51.442;6.996;2023-04-06T06:52:37;12.30;;;7.35;;
4569;SDS011;2297;51.442;6.996;2023-04-06T06:55:05;12.65;;;7.38;;
4569;SDS011;2297;51.442;6.996;2023-04-06T06:57:32;11.88;;;6.78;;
4569;SDS011;2297;51.442;6.996;2023-04-06T06:59:59;12.85;;;7.00;;
4569;SDS011;2297;51.442;6.996;2023-04-06T07:02:26;14.43;;;7.47;;
4569;SDS011;2297;51.442;6.996;2023-04-06T07:04:52;12.15;;;6.65;;
4569;SDS011;2297;51.442;6.996;2023-04-06T07:07:20;12.15;;;6.70;;
4569;SDS011;2297;51.442;6.996;2023-04-06T07:09:47;14.02;;;7.13;;
4569;SDS011;2297;51.442;6.996;2023-04-06T07:12:14;13.95;;;7.20;;
4569;SDS011;2297;51.442;6.996;2023-04-06T07:14:41;11.93;;;6.95;;
4569;SDS011;2297;51.442;6.996;2023-04-06T07:17:08;11.75;;;6.55;;
4569;SDS011;2297;51.442;6.996;2023-04-06T07:19:36;11.68;;;6.22;;
4569;SDS011;2297;51.442;6.996;2023-04-06T07:22:02;16.58;;;6.80;;
4569;SDS011;2297;51.442;6.996;2023-04-06T07:24:31;13.20;;;7.45;;
4569;SDS011;2297;51.442;6.996;2023-04-06T07:26:57;12.45;;;6.82;;
4569;SDS011;2297;51.442;6.996;2023-04-06T07:29:25;15.07;;;7.53;;
4569;SDS011;2297;51.442;6.996;2023-04-06T07:31:52;12.23;;;6.90;;
4569;SDS011;2297;51.442;6.996;2023-04-06T07:34:19;16.77;;;7.60;;
4569;SDS011;2297;51.442;6.996;2023-04-06T07:36:45;15.25;;;7.25;;
4569;SDS011;2297;51.442;6.996;2023-04-06T07:39:12;14.05;;;7.18;;
4569;SDS011;2297;51.442;6.996;2023-04-06T07:41:42;14.00;;;7.55;;
4569;SDS011;2297;51.442;6.996;2023-04-06T07:44:08;13.45;;;7.20;;
4569;SDS011;2297;51.442;6.996;2023-04-06T07:46:35;12.05;;;7.55;;
4569;SDS011;2297;51.442;6.996;2023-04-06T07:49:02;13.18;;;7.97;;
4569;SDS011;2297;51.442;6.996;2023-04-06T07:51:29;15.98;;;8.25;;
4569;SDS011;2297;51.442;6.996;2023-04-06T07:53:56;14.20;;;8.07;;
4569;SDS011;2297;51.442;6.996;2023-04-06T07:56:22;15.32;;;8.68;;
4569;SDS011;2297;51.442;6.996;2023-04-06T07:58:51;15.85;;;8.60;;
4569;SDS011;2297;51.442;6.996;2023-04-06T08:01:20;19.58;;;8.55;;
4569;SDS011;2297;51.442;6.996;2023-04-06T08:03:47;18.00;;;8.35;;
4569;SDS011;2297;51.442;6.996;2023-04-06T08:06:14;16.27;;;8.40;;
4569;SDS011;2297;51.442;6.996;2023-04-06T08:08:40;13.77;;;7.18;;
4569;SDS011;2297;51.442;6.996;2023-04-06T08:11:07;13.82;;;8.40;;
4569;SDS011;2297;51.442;6.996;2023-04-06T08:13:34;13.98;;;8.23;;
4569;SDS011;2297;51.442;6.996;2023-04-06T08:16:03;21.85;;;9.13;;
4569;SDS011;2297;51.442;6.996;2023-04-06T08:18:30;14.80;;;8.50;;
4569;SDS011;2297;51.442;6.996;2023-04-06T08:20:57;17.67;;;9.05;;
4569;SDS011;2297;51.442;6.996;2023-04-06T08:23:23;15.38;;;8.70;;
4569;SDS011;2297;51.442;6.996;2023-04-06T08:25:50;16.45;;;9.15;;
4569;SDS011;2297;51.442;6.996;2023-04-06T08:28:19;16.10;;;9.07;;
4569;SDS011;2297;51.442;6.996;2023-04-06T08:30:46;15.77;;;9.38;;
4569;SDS011;2297;51.442;6.996;2023-04-06T08:33:14;18.27;;;9.70;;
4569;SDS011;2297;51.442;6.996;2023-04-06T08:35:41;14.65;;;8.57;;
4569;SDS011;2297;51.442;6.996;2023-04-06T08:38:08;19.35;;;9.68;;
4569;SDS011;2297;51.442;6.996;2023-04-06T08:40:38;18.15;;;9.07;;
4569;SDS011;2297;51.442;6.996;2023-04-06T08:43:06;16.88;;;9.10;;
4569;SDS011;2297;51.442;6.996;2023-04-06T08:45:36;15.60;;;8.60;;
4569;SDS011;2297;51.442;6.996;2023-04-06T08:48:04;15.23;;;9.52;;
4569;SDS011;2297;51.442;6.996;2023-04-06T08:50:33;17.05;;;9.63;;
4569;SDS011;2297;51.442;6.996;2023-04-06T08:53:02;17.45;;;9.15;;
4569;SDS011;2297;51.442;6.996;2023-04-06T08:55:29;19.63;;;9.55;;
4569;SDS011;2297;51.442;6.996;2023-04-06T08:57:56;16.00;;;9.25;;
4569;SDS011;2297;51.442;6.996;2023-04-06T09:00:23;19.17;;;10.13;;
4569;SDS011;2297;51.442;6.996;2023-04-06T09:02:51;15.45;;;9.25;;
4569;SDS011;2297;51.442;6.996;2023-04-06T09:05:21;19.50;;;9.82;;
4569;SDS011;2297;51.442;6.996;2023-04-06T09:07:51;18.88;;;10.10;;
4569;SDS011;2297;51.442;6.996;2023-04-06T09:10:18;19.08;;;9.32;;
4569;SDS011;2297;51.442;6.996;2023-04-06T09:12:45;16.20;;;8.93;;
4569;SDS011;2297;51.442;6.996;2023-04-06T09:15:17;15.90;;;9.05;;
4569;SDS011;2297;51.442;6.996;2023-04-06T09:17:45;22.10;;;10.15;;
4569;SDS011;2297;51.442;6.996;2023-04-06T09:20:12;18.60;;;9.98;;
4569;SDS011;2297;51.442;6.996;2023-04-06T09:22:39;19.48;;;9.52;;
4569;SDS011;2297;51.442;6.996;2023-04-06T09:25:08;19.42;;;10.15;;
4569;SDS011;2297;51.442;6.996;2023-04-06T09:27:36;18.95;;;10.25;;
4569;SDS011;2297;51.442;6.996;2023-04-06T09:30:04;21.83;;;10.85;;
4569;SDS011;2297;51.442;6.996;2023-04-06T09:32:43;21.77;;;10.75;;
4569;SDS011;2297;51.442;6.996;2023-04-06T09:35:12;19.88;;;10.68;;
4569;SDS011;2297;51.442;6.996;2023-04-06T09:37:39;18.92;;;10.32;;
4569;SDS011;2297;51.442;6.996;2023-04-06T09:40:06;23.05;;;11.65;;
4569;SDS011;2297;51.442;6.996;2023-04-06T09:42:35;20.30;;;9.98;;
4569;SDS011;2297;51.442;6.996;2023-04-06T09:45:02;21.58;;;10.73;;
4569;SDS011;2297;51.442;6.996;2023-04-06T09:47:30;22.13;;;10.20;;
4569;SDS011;2297;51.442;6.996;2023-04-06T09:49:58;24.23;;;11.77;;
4569;SDS011;2297;51.442;6.996;2023-04-06T09:52:26;19.55;;;10.32;;
4569;SDS011;2297;51.442;6.996;2023-04-06T09:54:55;21.80;;;10.50;;
4569;SDS011;2297;51.442;6.996;2023-04-06T09:57:30;21.30;;;10.68;;
4569;SDS011;2297;51.442;6.996;2023-04-06T10:00:05;18.10;;;10.00;;
4569;SDS011;2297;51.442;6.996;2023-04-06T10:02:50;19.63;;;10.65;;
4569;SDS011;2297;51.442;6.996;2023-04-06T10:05:22;20.55;;;10.93;;
4569;SDS011;2297;51.442;6.996;2023-04-06T10:10:24;22.38;;;10.50;;
4569;SDS011;2297;51.442;6.996;2023-04-06T10:12:52;19.77;;;10.35;;
4569;SDS011;2297;51.442;6.996;2023-04-06T10:15:20;23.35;;;10.90;;
4569;SDS011;2297;51.442;6.996;2023-04-06T10:17:47;21.90;;;11.05;;
4569;SDS011;2297;51.442;6.996;2023-04-06T10:20:15;17.20;;;10.10;;
4569;SDS011;2297;51.442;6.996;2023-04-06T10:22:49;25.02;;;11.45;;
4569;SDS011;2297;51.442;6.996;2023-04-06T10:25:31;18.20;;;10.82;;
4569;SDS011;2297;51.442;6.996;2023-04-06T10:28:00;22.23;;;10.60;;
4569;SDS011;2297;51.442;6.996;2023-04-06T10:30:27;20.10;;;10.32;;
4569;SDS011;2297;51.442;6.996;2023-04-06T10:32:55;20.80;;;10.48;;
4569;SDS011;2297;51.442;6.996;2023-04-06T10:35:22;22.00;;;10.65;;
4569;SDS011;2297;51.442;6.996;2023-04-06T10:37:52;19.08;;;9.95;;
4569;SDS011;2297;51.442;6.996;2023-04-06T10:40:27;24.55;;;10.93;;
4569;SDS011;2297;51.442;6.996;2023-04-06T10:43:06;21.27;;;10.48;;
4569;SDS011;2297;51.442;6.996;2023-04-06T10:45:35;19.23;;;9.65;;
4569;SDS011;2297;51.442;6.996;2023-04-06T10:48:12;18.38;;;10.10;;
4569;SDS011;2297;51.442;6.996;2023-04-06T10:50:40;21.27;;;10.50;;
4569;SDS011;2297;51.442;6.996;2023-04-06T10:53:07;21.38;;;11.15;;
4569;SDS011;2297;51.442;6.996;2023-04-06T10:55:34;20.13;;;10.38;;
4569;SDS011;2297;51.442;6.996;2023-04-06T10:58:05;21.13;;;11.25;;
4569;SDS011;2297;51.442;6.996;2023-04-06T11:00:34;21.30;;;10.55;;
4569;SDS011;2297;51.442;6.996;2023-04-06T11:03:01;22.27;;;10.77;;
4569;SDS011;2297;51.442;6.996;2023-04-06T11:05:28;18.38;;;10.57;;
4569;SDS011;2297;51.442;6.996;2023-04-06T11:07:55;22.50;;;11.13;;
4569;SDS011;2297;51.442;6.996;2023-04-06T11:10:22;20.65;;;11.50;;
4569;SDS011;2297;51.442;6.996;2023-04-06T11:12:52;18.30;;;10.10;;
4569;SDS011;2297;51.442;6.996;2023-04-06T11:15:21;21.08;;;11.02;;
4569;SDS011;2297;51.442;6.996;2023-04-06T11:17:48;20.70;;;10.48;;
4569;SDS011;2297;51.442;6.996;2023-04-06T11:20:15;25.40;;;11.57;;
4569;SDS011;2297;51.442;6.996;2023-04-06T11:22:49;25.08;;;10.40;;
4569;SDS011;2297;51.442;6.996;2023-04-06T11:25:16;19.08;;;10.52;;
4569;SDS011;2297;51.442;6.996;2023-04-06T11:27:46;25.80;;;10.57;;
4569;SDS011;2297;51.442;6.996;2023-04-06T11:30:13;21.50;;;10.52;;
4569;SDS011;2297;51.442;6.996;2023-04-06T11:32:42;20.17;;;10.27;;
4569;SDS011;2297;51.442;6.996;2023-04-06T11:35:10;19.13;;;10.40;;
4569;SDS011;2297;51.442;6.996;2023-04-06T11:37:38;20.98;;;10.20;;
4569;SDS011;2297;51.442;6.996;2023-04-06T11:40:07;22.65;;;11.10;;
4569;SDS011;2297;51.442;6.996;2023-04-06T11:42:35;20.83;;;11.18;;
4569;SDS011;2297;51.442;6.996;2023-04-06T11:45:02;24.00;;;10.95;;
4569;SDS011;2297;51.442;6.996;2023-04-06T11:47:29;21.80;;;10.98;;
4569;SDS011;2297;51.442;6.996;2023-04-06T11:50:06;19.55;;;9.98;;
4569;SDS011;2297;51.442;6.996;2023-04-06T11:52:33;21.58;;;11.30;;
4569;SDS011;2297;51.442;6.996;2023-04-06T11:55:09;19.17;;;10.32;;
4569;SDS011;2297;51.442;6.996;2023-04-06T11:57:38;23.05;;;10.10;;
4569;SDS011;2297;51.442;6.996;2023-04-06T12:00:05;21.05;;;10.88;;
4569;SDS011;2297;51.442;6.996;2023-04-06T12:02:33;18.83;;;10.18;;
4569;SDS011;2297;51.442;6.996;2023-04-06T12:04:59;22.80;;;11.32;;
4569;SDS011;2297;51.442;6.996;2023-04-06T12:07:28;21.55;;;10.93;;
4569;SDS011;2297;51.442;6.996;2023-04-06T12:09:55;21.02;;;10.32;;
4569;SDS011;2297;51.442;6.996;2023-04-06T12:12:21;21.60;;;11.25;;
4569;SDS011;2297;51.442;6.996;2023-04-06T12:14:48;21.92;;;10.98;;
4569;SDS011;2297;51.442;6.996;2023-04-06T12:17:15;23.30;;;11.07;;
4569;SDS011;2297;51.442;6.996;2023-04-06T12:19:42;25.83;;;10.95;;
4569;SDS011;2297;51.442;6.996;2023-04-06T12:22:08;24.55;;;11.68;;
4569;SDS011;2297;51.442;6.996;2023-04-06T12:24:37;26.20;;;12.10;;
4569;SDS011;2297;51.442;6.996;2023-04-06T12:27:03;21.15;;;11.93;;
4569;SDS011;2297;51.442;6.996;2023-04-06T12:29:30;24.90;;;11.70;;
4569;SDS011;2297;51.442;6.996;2023-04-06T12:31:57;23.00;;;11.52;;
4569;SDS011;2297;51.442;6.996;2023-04-06T12:34:24;23.77;;;11.93;;
4569;SDS011;2297;51.442;6.996;2023-04-06T12:36:52;21.77;;;11.52;;
4569;SDS011;2297;51.442;6.996;2023-04-06T12:39:18;25.65;;;12.75;;
4569;SDS011;2297;51.442;6.996;2023-04-06T12:41:48;24.35;;;12.90;;
4569;SDS011;2297;51.442;6.996;2023-04-06T12:44:15;21.40;;;11.13;;
4569;SDS011;2297;51.442;6.996;2023-04-06T12:46:41;21.95;;;12.30;;
4569;SDS011;2297;51.442;6.996;2023-04-06T12:49:08;21.48;;;12.10;;
4569;SDS011;2297;51.442;6.996;2023-04-06T12:51:36;21.52;;;11.20;;
4569;SDS011;2297;51.442;6.996;2023-04-06T12:54:02;21.60;;;10.75;;
4569;SDS011;2297;51.442;6.996;2023-04-06T12:56:29;23.05;;;12.57;;
4569;SDS011;2297;51.442;6.996;2023-04-06T12:58:59;22.35;;;11.98;;
4569;SDS011;2297;51.442;6.996;2023-04-06T13:01:26;23.23;;;11.95;;
4569;SDS011;2297;51.442;6.996;2023-04-06T13:03:53;24.98;;;12.80;;
4569;SDS011;2297;51.442;6.996;2023-04-06T13:06:19;22.35;;;11.55;;
4569;SDS011;2297;51.442;6.996;2023-04-06T13:08:46;22.42;;;11.18;;
4569;SDS011;2297;51.442;6.996;2023-04-06T13:11:15;17.08;;;10.40;;
4569;SDS011;2297;51.442;6.996;2023-04-06T13:13:42;19.25;;;10.73;;
4569;SDS011;2297;51.442;6.996;2023-04-06T13:16:10;22.25;;;10.63;;
4569;SDS011;2297;51.442;6.996;2023-04-06T13:18:37;27.77;;;11.52;;
4569;SDS011;2297;51.442;6.996;2023-04-06T13:21:04;23.95;;;10.95;;
4569;SDS011;2297;51.442;6.996;2023-04-06T13:23:31;20.90;;;11.60;;
4569;SDS011;2297;51.442;6.996;2023-04-06T13:25:58;17.70;;;9.88;;
4569;SDS011;2297;51.442;6.996;2023-04-06T13:28:26;20.92;;;10.90;;
4569;SDS011;2297;51.442;6.996;2023-04-06T13:30:53;18.73;;;9.77;;
4569;SDS011;2297;51.442;6.996;2023-04-06T13:33:22;24.65;;;10.95;;
4569;SDS011;2297;51.442;6.996;2023-04-06T13:35:48;18.00;;;10.13;;
4569;SDS011;2297;51.442;6.996;2023-04-06T13:41:37;19.38;;;9.27;;
4569;SDS011;2297;51.442;6.996;2023-04-06T13:44:05;18.88;;;9.32;;
4569;SDS011;2297;51.442;6.996;2023-04-06T13:46:31;17.83;;;9.77;;
4569;SDS011;2297;51.442;6.996;2023-04-06T13:48:59;17.08;;;10.38;;
4569;SDS011;2297;51.442;6.996;2023-04-06T13:51:26;17.65;;;9.80;;
4569;SDS011;2297;51.442;6.996;2023-04-06T13:53:53;17.88;;;10.07;;
4569;SDS011;2297;51.442;6.996;2023-04-06T13:56:20;15.70;;;8.88;;
4569;SDS011;2297;51.442;6.996;2023-04-06T13:58:46;17.88;;;9.63;;
4569;SDS011;2297;51.442;6.996;2023-04-06T14:01:13;15.18;;;8.50;;
4569;SDS011;2297;51.442;6.996;2023-04-06T14:03:40;15.80;;;8.85;;
4569;SDS011;2297;51.442;6.996;2023-04-06T14:06:11;15.18;;;8.40;;
4569;SDS011;2297;51.442;6.996;2023-04-06T14:08:38;17.33;;;8.93;;
4569;SDS011;2297;51.442;6.996;2023-04-06T14:11:06;13.77;;;8.60;;
4569;SDS011;2297;51.442;6.996;2023-04-06T14:13:33;15.23;;;9.30;;
4569;SDS011;2297;51.442;6.996;2023-04-06T14:16:00;14.65;;;9.48;;
4569;SDS011;2297;51.442;6.996;2023-04-06T14:18:27;19.08;;;9.43;;
4569;SDS011;2297;51.442;6.996;2023-04-06T14:20:56;17.00;;;8.88;;
4569;SDS011;2297;51.442;6.996;2023-04-06T14:23:25;19.25;;;9.35;;
4569;SDS011;2297;51.442;6.996;2023-04-06T14:25:52;14.88;;;8.70;;
4569;SDS011;2297;51.442;6.996;2023-04-06T14:28:26;15.68;;;8.63;;
4569;SDS011;2297;51.442;6.996;2023-04-06T14:30:53;15.60;;;8.50;;
4569;SDS011;2297;51.442;6.996;2023-04-06T14:33:19;12.60;;;8.27;;
4569;SDS011;2297;51.442;6.996;2023-04-06T14:35:46;15.00;;;7.45;;
4569;SDS011;2297;51.442;6.996;2023-04-06T14:38:13;14.45;;;8.80;;
4569;SDS011;2297;51.442;6.996;2023-04-06T14:40:41;14.43;;;7.57;;
4569;SDS011;2297;51.442;6.996;2023-04-06T14:43:07;13.52;;;7.07;;
4569;SDS011;2297;51.442;6.996;2023-04-06T14:45:34;13.40;;;7.55;;
4569;SDS011;2297;51.442;6.996;2023-04-06T14:48:01;14.70;;;7.95;;
4569;SDS011;2297;51.442;6.996;2023-04-06T14:50:28;12.00;;;7.43;;
4569;SDS011;2297;51.442;6.996;2023-04-06T14:52:55;12.68;;;8.15;;
4569;SDS011;2297;51.442;6.996;2023-04-06T14:55:21;14.65;;;7.65;;
4569;SDS011;2297;51.442;6.996;2023-04-06T14:57:49;11.57;;;7.10;;
4569;SDS011;2297;51.442;6.996;2023-04-06T15:00:16;11.50;;;7.75;;
4569;SDS011;2297;51.442;6.996;2023-04-06T15:02:43;18.25;;;7.70;;
4569;SDS011;2297;51.442;6.996;2023-04-06T15:05:10;15.10;;;8.80;;